createdAt,value
2022-11-20T00:01:20.003Z,11.73
2022-11-20T00:03:48.562Z,12.40
2022-11-20T00:06:19.662Z,11.27
2022-11-20T00:08:48.318Z,14.80
2022-11-20T00:11:19.166Z,13.63
2022-11-20T00:13:49.623Z,13.53
2022-11-20T00:16:22.064Z,14.03
2022-11-20T00:18:50.472Z,14.13
2022-11-20T00:21:22.306Z,13.50
2022-11-20T00:23:52.084Z,13.27
2022-11-20T00:26:23.692Z,13.33
2022-11-20T00:28:54.176Z,13.27
2022-11-20T00:31:23.586Z,12.43
2022-11-20T00:33:52.202Z,13.90
2022-11-20T00:36:21.917Z,14.53
2022-11-20T00:38:52.665Z,13.97
2022-11-20T00:41:20.508Z,14.97
2022-11-20T00:43:48.587Z,15.33
2022-11-20T00:46:19.328Z,14.93
2022-11-20T00:48:49.488Z,14.57
2022-11-20T00:51:20.589Z,15.17
2022-11-20T00:53:48.729Z,14.97
2022-11-20T00:56:19.240Z,13.80
2022-11-20T00:58:49.531Z,15.00
2022-11-20T01:01:20.168Z,14.30
2022-11-20T01:03:52.245Z,13.93
2022-11-20T01:06:23.312Z,13.43
2022-11-20T01:08:54.233Z,14.33
2022-11-20T01:11:25.158Z,14.37
2022-11-20T01:13:55.363Z,15.03
2022-11-20T01:16:28.168Z,17.17
2022-11-20T01:19:01.749Z,16.33
2022-11-20T01:21:32.280Z,17.07
2022-11-20T01:24:00.865Z,16.33
2022-11-20T01:26:31.423Z,16.20
2022-11-20T01:29:00.587Z,15.27
2022-11-20T01:31:31.919Z,16.43
2022-11-20T01:34:04.470Z,16.90
2022-11-20T01:36:35.007Z,17.70
2022-11-20T01:39:08.486Z,17.20
2022-11-20T01:41:54.713Z,16.47
2022-11-20T01:44:46.617Z,16.00
2022-11-20T01:47:18.397Z,15.90
2022-11-20T01:49:54.502Z,15.63
2022-11-20T01:52:28.641Z,15.80
2022-11-20T01:55:04.639Z,15.53
2022-11-20T01:57:36.870Z,14.57
2022-11-20T02:00:10.575Z,13.63
2022-11-20T02:02:45.818Z,13.80
2022-11-20T02:05:26.383Z,13.73
2022-11-20T02:07:58.823Z,13.53
2022-11-20T02:10:28.923Z,14.77
2022-11-20T02:13:16.251Z,14.70
2022-11-20T02:15:44.989Z,15.07
2022-11-20T02:18:16.992Z,14.37
2022-11-20T02:20:49.456Z,14.13
2022-11-20T02:23:30.483Z,15.17
2022-11-20T02:26:04.422Z,20.47
2022-11-20T02:28:32.494Z,64.03
2022-11-20T02:31:00.297Z,19.43
2022-11-20T02:33:28.129Z,18.07
2022-11-20T02:35:55.858Z,15.60
2022-11-20T02:38:24.250Z,17.10
2022-11-20T02:40:55.460Z,16.97
2022-11-20T02:43:25.120Z,17.33
2022-11-20T02:45:52.996Z,14.43
2022-11-20T02:48:20.761Z,15.70
2022-11-20T02:50:48.566Z,20.20
2022-11-20T02:53:16.452Z,27.00
2022-11-20T02:55:44.303Z,24.53
2022-11-20T02:58:12.175Z,20.20
2022-11-20T03:00:41.384Z,21.27
2022-11-20T03:03:09.208Z,20.27
2022-11-20T03:05:36.992Z,26.73
2022-11-20T03:08:05.319Z,31.30
2022-11-20T03:10:33.087Z,27.17
2022-11-20T03:13:00.861Z,28.57
2022-11-20T03:15:28.585Z,27.13
2022-11-20T03:17:57.827Z,22.80
2022-11-20T03:20:25.755Z,17.73
2022-11-20T03:22:55.891Z,18.83
2022-11-20T03:25:23.726Z,17.03
2022-11-20T03:27:51.950Z,17.30
2022-11-20T03:30:19.889Z,18.90
2022-11-20T03:32:47.695Z,17.57
2022-11-20T03:35:17.048Z,16.93
2022-11-20T03:37:46.517Z,16.13
2022-11-20T03:40:14.396Z,16.47
2022-11-20T03:42:47.992Z,16.80
2022-11-20T03:45:18.552Z,18.57
2022-11-20T03:47:47.100Z,18.30
2022-11-20T03:50:16.509Z,15.63
2022-11-20T03:52:44.313Z,15.87
2022-11-20T03:55:12.217Z,15.57
2022-11-20T03:57:39.975Z,14.23
2022-11-20T04:00:09.294Z,14.57
2022-11-20T04:02:37.201Z,13.87
2022-11-20T04:05:05.986Z,14.47
2022-11-20T04:07:36.416Z,13.83
2022-11-20T04:10:05.446Z,14.83
2022-11-20T04:12:34.471Z,14.73
2022-11-20T04:15:02.332Z,15.00
2022-11-20T04:17:30.101Z,15.10
2022-11-20T04:19:57.849Z,14.83
2022-11-20T04:22:25.696Z,14.37
2022-11-20T04:24:54.828Z,14.53
2022-11-20T04:27:22.612Z,14.13
2022-11-20T04:29:50.510Z,13.97
2022-11-20T04:32:18.354Z,14.27
2022-11-20T04:34:46.151Z,13.93
2022-11-20T04:37:13.969Z,14.47
2022-11-20T04:39:42.090Z,14.40
2022-11-20T04:42:29.675Z,14.33
2022-11-20T04:44:58.488Z,13.53
2022-11-20T04:47:26.262Z,14.90
2022-11-20T04:49:56.099Z,13.87
2022-11-20T04:52:23.862Z,14.73
2022-11-20T04:54:53.801Z,13.97
2022-11-20T04:57:23.024Z,14.47
2022-11-20T04:59:50.719Z,14.50
2022-11-20T05:02:18.892Z,14.33
2022-11-20T05:04:46.739Z,14.57
2022-11-20T05:07:14.697Z,14.10
2022-11-20T05:09:42.827Z,14.10
2022-11-20T05:12:11.097Z,14.17
2022-11-20T05:14:40.377Z,13.63
2022-11-20T05:17:11.872Z,14.57
2022-11-20T05:19:39.684Z,14.07
2022-11-20T05:22:07.536Z,13.90
2022-11-20T05:24:35.679Z,14.47
2022-11-20T05:27:03.682Z,13.87
2022-11-20T05:29:31.462Z,14.50
2022-11-20T05:32:00.604Z,15.00
2022-11-20T05:34:28.421Z,15.47
2022-11-20T05:36:56.217Z,16.13
2022-11-20T05:39:24.264Z,14.37
2022-11-20T05:42:12.266Z,14.57
2022-11-20T05:44:40.198Z,13.93
2022-11-20T05:47:09.290Z,14.67
2022-11-20T05:49:37.058Z,14.60
2022-11-20T05:52:05.089Z,14.03
2022-11-20T05:54:33.286Z,13.80
2022-11-20T05:57:01.186Z,16.47
2022-11-20T05:59:28.909Z,15.20
2022-11-20T06:01:56.702Z,15.10
2022-11-20T06:04:26.047Z,16.13
2022-11-20T06:06:53.912Z,14.50
2022-11-20T06:09:21.885Z,15.27
2022-11-20T06:11:49.862Z,14.30
2022-11-20T06:14:17.735Z,14.97
2022-11-20T06:16:45.478Z,13.60
2022-11-20T06:19:13.429Z,13.37
2022-11-20T06:21:42.581Z,13.93
2022-11-20T06:24:11.363Z,14.33
2022-11-20T06:26:39.267Z,14.83
2022-11-20T06:29:07.300Z,15.87
2022-11-20T06:31:38.454Z,15.73
2022-11-20T06:34:07.176Z,15.60
2022-11-20T06:36:35.070Z,14.77
2022-11-20T06:39:04.652Z,15.13
2022-11-20T06:41:32.372Z,15.53
2022-11-20T06:44:00.266Z,15.37
2022-11-20T06:46:29.129Z,14.43
2022-11-20T06:48:56.938Z,14.30
2022-11-20T06:51:24.786Z,14.37
2022-11-20T06:53:52.735Z,13.87
2022-11-20T06:56:21.904Z,15.30
2022-11-20T06:58:49.643Z,13.77
2022-11-20T07:01:17.887Z,14.83
2022-11-20T07:03:50.042Z,14.37
2022-11-20T07:06:20.686Z,14.98
2022-11-20T07:08:48.475Z,14.73
2022-11-20T07:11:16.257Z,15.73
2022-11-20T07:13:45.460Z,18.10
2022-11-20T07:16:13.245Z,19.13
2022-11-20T07:18:44.765Z,18.20
2022-11-20T07:21:15.764Z,18.07
2022-11-20T07:23:43.692Z,18.13
2022-11-20T07:26:12.331Z,18.10
2022-11-20T07:28:40.249Z,17.57
2022-11-20T07:31:11.482Z,18.30
2022-11-20T07:33:41.307Z,17.90
2022-11-20T07:36:09.533Z,18.27
2022-11-20T07:38:38.428Z,19.10
2022-11-20T07:41:06.455Z,16.93
2022-11-20T07:43:39.809Z,17.70
2022-11-20T07:46:10.411Z,18.80
2022-11-20T07:48:38.242Z,17.70
2022-11-20T07:51:06.831Z,19.60
2022-11-20T07:53:34.706Z,17.30
2022-11-20T07:56:03.766Z,18.13
2022-11-20T07:58:33.916Z,16.80
2022-11-20T08:01:05.787Z,18.67
2022-11-20T08:03:38.431Z,17.97
2022-11-20T08:06:07.614Z,18.87
2022-11-20T08:08:38.882Z,18.73
2022-11-20T08:11:28.523Z,19.77
2022-11-20T08:14:14.698Z,19.35
2022-11-20T08:19:14.995Z,20.73
2022-11-20T08:21:43.684Z,20.23
2022-11-20T08:24:12.606Z,21.37
2022-11-20T08:26:42.151Z,21.10
2022-11-20T08:29:10.001Z,23.20
2022-11-20T08:31:37.863Z,23.90
2022-11-20T08:34:09.253Z,21.60
2022-11-20T08:36:38.675Z,23.73
2022-11-20T08:39:06.901Z,21.27
2022-11-20T08:41:34.929Z,23.50
2022-11-20T08:44:05.696Z,25.77
2022-11-20T08:46:38.006Z,26.33
2022-11-20T08:49:08.588Z,26.03
2022-11-20T08:51:39.186Z,23.93
2022-11-20T08:54:08.373Z,24.30
2022-11-20T08:56:36.882Z,26.43
2022-11-20T09:01:53.170Z,22.60
2022-11-20T09:04:21.539Z,20.83
2022-11-20T09:06:52.260Z,20.70
2022-11-20T09:09:20.516Z,20.57
2022-11-20T09:11:50.754Z,21.10
2022-11-20T09:14:18.654Z,20.83
2022-11-20T09:16:47.467Z,22.33
2022-11-20T09:22:04.852Z,20.67
2022-11-20T09:24:32.790Z,19.87
2022-11-20T09:27:04.416Z,20.03
2022-11-20T09:29:33.833Z,20.47
2022-11-20T09:32:01.581Z,20.10
2022-11-20T09:34:29.459Z,19.43
2022-11-20T09:36:58.549Z,19.03
2022-11-20T09:39:29.474Z,20.10
2022-11-20T09:42:23.850Z,19.57
2022-11-20T09:45:13.030Z,18.87
2022-11-20T09:48:02.992Z,20.80
2022-11-20T09:50:36.118Z,19.83
2022-11-20T09:53:16.594Z,20.10
2022-11-20T09:55:48.078Z,19.93
2022-11-20T09:58:26.692Z,20.80
2022-11-20T10:00:57.717Z,19.37
2022-11-20T10:03:40.742Z,18.63
2022-11-20T10:06:17.932Z,20.57
2022-11-20T10:08:58.311Z,19.00
2022-11-20T10:11:46.752Z,17.80
2022-11-20T10:14:31.433Z,17.80
2022-11-20T10:17:15.214Z,17.77
2022-11-20T10:20:04.122Z,19.10
2022-11-20T10:22:54.636Z,19.07
2022-11-20T10:25:31.942Z,18.57
2022-11-20T10:28:35.748Z,18.73
2022-11-20T10:31:10.667Z,17.93
2022-11-20T10:34:10.554Z,18.00
2022-11-20T10:36:41.963Z,18.53
2022-11-20T10:39:25.509Z,19.10
2022-11-20T10:41:57.548Z,18.33
2022-11-20T10:44:53.733Z,18.07
2022-11-20T10:47:26.450Z,18.37
2022-11-20T10:49:59.143Z,18.10
2022-11-20T10:52:42.778Z,17.77
2022-11-20T10:55:28.626Z,17.43
2022-11-20T10:58:14.317Z,17.27
2022-11-20T11:00:43.518Z,17.38
2022-11-20T11:03:25.155Z,18.60
2022-11-20T11:06:00.499Z,17.93
2022-11-20T11:08:35.966Z,17.63
2022-11-20T11:11:22.350Z,18.25
2022-11-20T11:13:51.075Z,17.73
2022-11-20T11:16:24.677Z,17.50
2022-11-20T11:18:53.003Z,17.73
2022-11-20T11:21:25.835Z,19.27
2022-11-20T11:24:26.947Z,18.00
2022-11-20T11:26:57.367Z,17.93
2022-11-20T11:29:27.697Z,17.67
2022-11-20T11:32:07.419Z,16.47
2022-11-20T11:34:35.617Z,17.27
2022-11-20T11:37:06.026Z,15.90
2022-11-20T11:39:44.012Z,16.13
2022-11-20T11:42:19.820Z,14.60
2022-11-20T11:45:10.108Z,14.17
2022-11-20T11:47:49.073Z,13.67
2022-11-20T11:50:22.063Z,11.07
2022-11-20T11:53:02.859Z,11.33
2022-11-20T11:55:38.254Z,8.30
2022-11-20T11:58:18.579Z,9.68
2022-11-20T12:00:58.155Z,9.50
2022-11-20T12:03:37.332Z,9.80
2022-11-20T12:06:13.581Z,9.80
2022-11-20T12:08:52.963Z,9.80
2022-11-20T12:11:38.596Z,10.00
2022-11-20T12:14:17.973Z,9.77
2022-11-20T12:16:45.845Z,12.33
2022-11-20T12:19:15.718Z,12.40
2022-11-20T12:22:01.959Z,12.67
2022-11-20T12:25:00.144Z,12.63
2022-11-20T12:27:53.160Z,12.65
2022-11-20T12:30:25.709Z,12.80
2022-11-20T12:33:27.490Z,12.40
2022-11-20T12:36:18.893Z,13.20
2022-11-20T12:39:03.878Z,12.83
2022-11-20T12:42:15.659Z,12.07
2022-11-20T12:45:21.158Z,13.03
2022-11-20T12:48:24.242Z,13.73
2022-11-20T12:51:24.957Z,12.47
2022-11-20T12:54:22.790Z,13.20
2022-11-20T12:57:03.972Z,13.23
2022-11-20T13:00:05.603Z,13.93
2022-11-20T13:03:06.032Z,14.17
2022-11-20T13:05:52.153Z,15.17
2022-11-20T13:08:25.763Z,15.05
2022-11-20T13:11:04.641Z,14.37
2022-11-20T13:13:49.850Z,15.23
2022-11-20T13:16:28.313Z,14.50
2022-11-20T13:18:56.490Z,16.10
2022-11-20T13:21:39.005Z,15.93
2022-11-20T13:24:27.194Z,14.93
2022-11-20T13:27:19.236Z,15.20
2022-11-20T13:30:01.309Z,15.47
2022-11-20T13:32:33.350Z,15.83
2022-11-20T13:35:03.968Z,15.10
2022-11-20T13:37:35.609Z,15.77
2022-11-20T13:40:23.094Z,15.43
2022-11-20T13:43:04.956Z,15.07
2022-11-20T13:45:36.639Z,16.00
2022-11-20T13:48:21.602Z,15.20
2022-11-20T13:51:05.197Z,15.23
2022-11-20T13:54:45.582Z,15.07
2022-11-20T13:57:42.374Z,15.10
2022-11-20T14:00:15.595Z,14.17
2022-11-20T14:02:45.192Z,14.47
2022-11-20T14:05:23.762Z,15.87
2022-11-20T14:08:25.690Z,16.20
2022-11-20T14:11:05.687Z,16.00
2022-11-20T14:13:35.039Z,16.00
2022-11-20T15:17:24.522Z,22.83
2022-11-20T15:19:54.254Z,22.87
2022-11-20T15:22:22.044Z,24.20
2022-11-20T15:24:49.878Z,22.63
2022-11-20T15:27:17.845Z,23.30
2022-11-20T15:29:45.597Z,22.00
2022-11-20T15:32:13.846Z,21.10
2022-11-20T15:34:43.391Z,21.77
2022-11-20T15:37:11.099Z,20.70
2022-11-20T15:39:38.817Z,20.97
2022-11-20T15:42:06.630Z,22.33
2022-11-20T15:44:34.444Z,15.53
2022-11-20T15:47:02.223Z,19.37
2022-11-20T15:49:30.131Z,19.77
2022-11-20T15:51:59.180Z,20.53
2022-11-20T15:54:27.310Z,20.23
2022-11-20T15:56:55.431Z,19.67
2022-11-20T15:59:23.476Z,20.33
2022-11-20T16:01:51.413Z,20.67
2022-11-20T16:04:19.514Z,21.40
2022-11-20T16:06:49.264Z,18.53
2022-11-20T16:09:18.479Z,20.43
2022-11-20T16:11:46.176Z,19.57
2022-11-20T16:14:33.311Z,20.20
2022-11-20T16:17:02.496Z,20.23
2022-11-20T16:19:30.320Z,21.13
2022-11-20T16:22:02.708Z,20.97
2022-11-20T16:24:32.533Z,19.87
2022-11-20T16:27:00.472Z,21.13
2022-11-20T16:29:28.294Z,19.43
2022-11-20T16:31:57.794Z,19.77
2022-11-20T16:34:25.912Z,19.03
2022-11-20T16:36:54.015Z,20.57
2022-11-20T16:39:23.984Z,19.10
2022-11-20T16:41:53.411Z,18.57
2022-11-20T16:44:21.724Z,18.40
2022-11-20T16:46:49.976Z,18.60
2022-11-20T16:49:17.748Z,19.37
2022-11-20T16:51:45.949Z,18.47
2022-11-20T16:54:17.857Z,19.13
2022-11-20T16:56:47.937Z,19.47
2022-11-20T16:59:17.832Z,20.30
2022-11-20T17:01:45.701Z,19.57
2022-11-20T17:04:13.790Z,18.27
2022-11-20T17:06:44.435Z,20.23
2022-11-20T17:09:13.696Z,20.97
2022-11-20T17:11:41.403Z,25.50
2022-11-20T17:14:11.861Z,24.80
2022-11-20T17:16:41.278Z,23.40
2022-11-20T17:19:09.157Z,23.60
2022-11-20T17:21:38.017Z,26.87
2022-11-20T17:24:09.235Z,27.03
2022-11-20T17:26:40.341Z,27.87
2022-11-20T17:29:11.840Z,25.63
2022-11-20T17:31:42.551Z,28.80
2022-11-20T17:34:14.986Z,26.90
2022-11-20T17:36:46.931Z,27.50
2022-11-20T17:39:17.186Z,27.57
2022-11-20T17:41:45.907Z,31.00
2022-11-20T17:44:14.047Z,30.53
2022-11-20T17:46:43.222Z,30.93
2022-11-20T17:49:11.029Z,28.90
2022-11-20T17:51:40.574Z,25.60
2022-11-20T17:54:08.477Z,29.33
2022-11-20T17:56:55.596Z,23.37
2022-11-20T17:59:24.574Z,31.33
2022-11-20T18:01:54.641Z,29.17
2022-11-20T18:04:23.570Z,34.20
2022-11-20T18:06:51.675Z,31.97
2022-11-20T18:09:19.473Z,30.97
2022-11-20T18:11:47.201Z,31.33
2022-11-20T18:14:28.750Z,24.87
2022-11-20T18:17:00.940Z,19.67
2022-11-20T18:19:32.868Z,26.57
2022-11-20T18:22:04.033Z,25.33
2022-11-20T18:24:33.022Z,23.30
2022-11-20T18:27:00.915Z,23.90
2022-11-20T18:29:30.974Z,27.10
2022-11-20T18:32:00.895Z,29.10
2022-11-20T18:34:29.743Z,34.63
2022-11-20T18:36:58.066Z,31.43
2022-11-20T18:39:26.052Z,24.27
2022-11-20T18:42:13.390Z,36.03
2022-11-20T18:44:54.847Z,25.30
2022-11-20T18:51:10.493Z,25.00
2022-11-20T18:53:44.365Z,32.17
2022-11-20T18:56:14.800Z,30.43
2022-11-20T18:58:42.536Z,37.37
2022-11-20T19:01:20.210Z,30.67
2022-11-20T19:04:19.828Z,25.80
2022-11-20T19:06:52.741Z,27.87
2022-11-20T19:09:24.031Z,26.23
2022-11-20T19:11:52.273Z,30.40
2022-11-20T19:14:20.447Z,18.97
2022-11-20T19:16:49.226Z,27.97
2022-11-20T19:19:17.980Z,14.77
2022-11-20T19:21:45.810Z,27.70
2022-11-20T19:24:14.286Z,21.83
2022-11-20T19:26:43.753Z,16.97
2022-11-20T19:29:15.361Z,21.30
2022-11-20T19:31:43.419Z,22.77
2022-11-20T19:34:12.029Z,23.57
2022-11-20T19:36:44.681Z,21.27
2022-11-20T19:39:13.274Z,19.93
2022-11-20T19:41:43.169Z,21.00
2022-11-20T19:44:14.033Z,20.00
2022-11-20T19:46:45.290Z,22.23
2022-11-20T19:49:14.676Z,19.47
2022-11-20T19:51:47.452Z,18.63
2022-11-20T19:54:16.624Z,20.30
2022-11-20T19:56:47.037Z,19.70
2022-11-20T19:59:15.229Z,17.30
2022-11-20T20:01:43.643Z,11.93
2022-11-20T20:04:11.656Z,18.13
2022-11-20T20:06:40.101Z,13.77
2022-11-20T20:09:10.352Z,12.47
2022-11-20T20:11:39.562Z,13.70
2022-11-20T20:14:14.372Z,15.47
2022-11-20T20:16:43.278Z,14.43
2022-11-20T20:19:14.359Z,15.70
2022-11-20T20:21:42.524Z,16.83
2022-11-20T20:24:11.609Z,16.83
2022-11-20T20:26:39.878Z,18.80
2022-11-20T20:29:09.272Z,16.43
2022-11-20T20:31:37.100Z,12.00
2022-11-20T20:34:05.924Z,17.07
2022-11-20T20:36:33.829Z,18.80
2022-11-20T20:39:04.484Z,15.17
2022-11-20T20:41:32.756Z,16.53
2022-11-20T20:44:20.425Z,12.47
2022-11-20T20:46:51.776Z,18.67
2022-11-20T20:49:19.705Z,17.40
2022-11-20T20:51:47.615Z,20.10
2022-11-20T20:54:15.373Z,19.83
2022-11-20T20:56:43.327Z,14.17
2022-11-20T20:59:14.191Z,17.03
2022-11-20T21:01:41.975Z,17.80
2022-11-20T21:04:11.772Z,16.13
2022-11-20T21:06:39.592Z,19.07
2022-11-20T21:09:07.561Z,20.17
2022-11-20T21:11:35.458Z,20.33
2022-11-20T21:14:03.439Z,19.93
2022-11-20T21:16:40.759Z,20.63
2022-11-20T21:19:08.830Z,18.97
2022-11-20T21:21:57.008Z,17.57
2022-11-20T21:24:25.531Z,18.07
2022-11-20T21:26:54.068Z,20.00
2022-11-20T21:29:26.419Z,18.50
2022-11-20T21:31:54.963Z,20.47
2022-11-20T21:34:24.596Z,21.60
2022-11-20T21:36:54.119Z,20.70
2022-11-20T21:39:22.199Z,19.07
2022-11-20T21:41:50.258Z,19.90
2022-11-20T21:44:33.609Z,22.23
2022-11-20T21:47:01.474Z,21.60
2022-11-20T21:49:29.608Z,24.47
2022-11-20T21:51:58.788Z,23.80
2022-11-20T21:54:26.974Z,27.07
2022-11-20T21:56:54.879Z,23.17
2022-11-20T21:59:22.955Z,26.80
2022-11-20T22:01:50.840Z,27.83
2022-11-20T22:04:18.796Z,25.33
2022-11-20T22:06:46.789Z,27.13
2022-11-20T22:09:16.582Z,26.87
2022-11-20T22:11:44.370Z,27.40
2022-11-20T22:14:24.915Z,31.77
2022-11-20T22:16:54.096Z,33.80
2022-11-20T22:19:23.520Z,30.77
2022-11-20T22:21:51.898Z,29.30
2022-11-20T22:24:23.215Z,32.83
2022-11-20T22:26:51.618Z,33.00
2022-11-20T22:29:21.449Z,32.07
2022-11-20T22:31:52.969Z,31.80
2022-11-20T22:34:20.999Z,36.43
2022-11-20T22:36:48.962Z,29.03
2022-11-20T22:39:17.620Z,33.53
2022-11-20T22:41:46.861Z,27.90
2022-11-20T22:44:16.243Z,23.83
2022-11-20T22:46:44.077Z,31.63
2022-11-20T22:49:11.825Z,29.73
2022-11-20T22:51:41.694Z,30.23
2022-11-20T22:54:12.141Z,33.23
2022-11-20T22:56:40.738Z,28.93
2022-11-20T22:59:10.269Z,18.07
2022-11-20T23:01:39.014Z,9.97
2022-11-20T23:04:10.772Z,28.03
2022-11-20T23:06:38.865Z,28.00
2022-11-20T23:09:08.405Z,22.13
2022-11-20T23:11:36.859Z,28.13
2022-11-20T23:14:07.967Z,23.93
2022-11-20T23:16:37.235Z,27.97
2022-11-20T23:19:08.298Z,27.50
2022-11-20T23:21:38.808Z,23.87
2022-11-20T23:24:07.976Z,33.40
2022-11-20T23:26:39.705Z,33.50
2022-11-20T23:29:08.012Z,33.90
2022-11-20T23:31:37.270Z,26.83
2022-11-20T23:34:05.634Z,16.57
2022-11-20T23:36:33.609Z,19.83
2022-11-20T23:39:01.662Z,34.13
2022-11-20T23:41:29.569Z,35.83
2022-11-20T23:43:57.292Z,36.77
2022-11-20T23:46:25.422Z,33.43
2022-11-20T23:48:54.521Z,28.47
2022-11-20T23:51:22.402Z,28.33
2022-11-20T23:53:50.384Z,30.93
2022-11-20T23:56:18.357Z,28.13
2022-11-20T23:58:46.246Z,31.63
